sensor_id;sensor_type;location;lat;lon;timestamp;P1;durP1;ratioP1;P2;durP2;ratioP2
23474;SDS011;11910;52.086;21.066;2023-03-14T00:00:55;11.77;;;7.88;;
23474;SDS011;11910;52.086;21.066;2023-03-14T00:03:20;17.25;;;7.80;;
23474;SDS011;11910;52.086;21.066;2023-03-14T00:05:46;12.57;;;7.63;;
23474;SDS011;11910;52.086;21.066;2023-03-14T00:08:12;12.68;;;7.57;;
23474;SDS011;11910;52.086;21.066;2023-03-14T00:10:38;13.27;;;7.47;;
23474;SDS011;11910;52.086;21.066;2023-03-14T00:13:04;13.25;;;7.70;;
23474;SDS011;11910;52.086;21.066;2023-03-14T00:15:29;13.60;;;7.70;;
23474;SDS011;11910;52.086;21.066;2023-03-14T00:17:58;13.20;;;7.35;;
23474;SDS011;11910;52.086;21.066;2023-03-14T00:20:23;12.93;;;7.22;;
23474;SDS011;11910;52.086;21.066;2023-03-14T00:22:49;12.05;;;7.10;;
23474;SDS011;11910;52.086;21.066;2023-03-14T00:25:15;10.10;;;6.90;;
23474;SDS011;11910;52.086;21.066;2023-03-14T00:27:40;13.50;;;7.80;;
23474;SDS011;11910;52.086;21.066;2023-03-14T00:30:06;10.65;;;7.05;;
23474;SDS011;11910;52.086;21.066;2023-03-14T00:32:33;12.60;;;7.18;;
23474;SDS011;11910;52.086;21.066;2023-03-14T00:34:58;13.70;;;6.95;;
23474;SDS011;11910;52.086;21.066;2023-03-14T00:37:25;12.02;;;7.40;;
23474;SDS011;11910;52.086;21.066;2023-03-14T00:39:51;12.50;;;6.60;;
23474;SDS011;11910;52.086;21.066;2023-03-14T00:42:17;12.00;;;6.65;;
23474;SDS011;11910;52.086;21.066;2023-03-14T00:44:42;12.07;;;6.65;;
23474;SDS011;11910;52.086;21.066;2023-03-14T00:47:08;10.52;;;6.78;;
23474;SDS011;11910;52.086;21.066;2023-03-14T00:49:33;11.45;;;6.80;;
23474;SDS011;11910;52.086;21.066;2023-03-14T00:51:59;10.82;;;6.30;;
23474;SDS011;11910;52.086;21.066;2023-03-14T00:54:25;10.60;;;6.75;;
23474;SDS011;11910;52.086;21.066;2023-03-14T00:56:50;13.10;;;7.25;;
23474;SDS011;11910;52.086;21.066;2023-03-14T00:59:16;11.73;;;6.97;;
23474;SDS011;11910;52.086;21.066;2023-03-14T01:01:42;11.00;;;6.45;;
23474;SDS011;11910;52.086;21.066;2023-03-14T01:04:08;10.52;;;6.55;;
23474;SDS011;11910;52.086;21.066;2023-03-14T01:06:34;11.68;;;6.53;;
23474;SDS011;11910;52.086;21.066;2023-03-14T01:08:59;9.82;;;6.53;;
23474;SDS011;11910;52.086;21.066;2023-03-14T01:11:26;11.73;;;6.60;;
23474;SDS011;11910;52.086;21.066;2023-03-14T01:13:53;11.20;;;6.53;;
23474;SDS011;11910;52.086;21.066;2023-03-14T01:16:20;11.70;;;6.60;;
23474;SDS011;11910;52.086;21.066;2023-03-14T01:18:47;10.82;;;6.25;;
23474;SDS011;11910;52.086;21.066;2023-03-14T01:23:41;12.55;;;6.15;;
23474;SDS011;11910;52.086;21.066;2023-03-14T01:26:11;11.60;;;6.95;;
23474;SDS011;11910;52.086;21.066;2023-03-14T01:28:38;11.02;;;6.35;;
23474;SDS011;11910;52.086;21.066;2023-03-14T01:31:05;11.52;;;6.28;;
23474;SDS011;11910;52.086;21.066;2023-03-14T01:33:32;9.30;;;6.10;;
23474;SDS011;11910;52.086;21.066;2023-03-14T01:35:58;9.40;;;6.00;;
23474;SDS011;11910;52.086;21.066;2023-03-14T01:38:23;9.80;;;6.22;;
23474;SDS011;11910;52.086;21.066;2023-03-14T01:40:49;10.13;;;6.25;;
23474;SDS011;11910;52.086;21.066;2023-03-14T01:43:19;12.15;;;6.53;;
23474;SDS011;11910;52.086;21.066;2023-03-14T01:48:35;9.52;;;6.50;;
23474;SDS011;11910;52.086;21.066;2023-03-14T01:51:07;9.80;;;6.35;;
23474;SDS011;11910;52.086;21.066;2023-03-14T01:53:42;9.65;;;5.93;;
23474;SDS011;11910;52.086;21.066;2023-03-14T01:56:09;8.43;;;5.70;;
23474;SDS011;11910;52.086;21.066;2023-03-14T01:58:37;10.30;;;6.47;;
23474;SDS011;11910;52.086;21.066;2023-03-14T02:01:06;9.93;;;6.20;;
23474;SDS011;11910;52.086;21.066;2023-03-14T02:03:34;13.25;;;6.80;;
23474;SDS011;11910;52.086;21.066;2023-03-14T02:06:04;9.85;;;6.10;;
23474;SDS011;11910;52.086;21.066;2023-03-14T02:08:32;10.98;;;5.97;;
23474;SDS011;11910;52.086;21.066;2023-03-14T02:11:00;9.63;;;5.88;;
23474;SDS011;11910;52.086;21.066;2023-03-14T02:13:25;9.38;;;6.00;;
23474;SDS011;11910;52.086;21.066;2023-03-14T02:15:51;9.82;;;5.50;;
23474;SDS011;11910;52.086;21.066;2023-03-14T02:18:17;7.95;;;5.50;;
23474;SDS011;11910;52.086;21.066;2023-03-14T02:20:56;9.73;;;5.70;;
23474;SDS011;11910;52.086;21.066;2023-03-14T02:23:31;10.50;;;5.80;;
23474;SDS011;11910;52.086;21.066;2023-03-14T02:29:31;10.15;;;5.32;;
23474;SDS011;11910;52.086;21.066;2023-03-14T02:32:00;11.25;;;5.80;;
23474;SDS011;11910;52.086;21.066;2023-03-14T02:34:27;9.88;;;5.72;;
23474;SDS011;11910;52.086;21.066;2023-03-14T02:36:53;9.52;;;5.35;;
23474;SDS011;11910;52.086;21.066;2023-03-14T02:39:27;10.20;;;5.78;;
23474;SDS011;11910;52.086;21.066;2023-03-14T02:42:05;8.48;;;5.47;;
23474;SDS011;11910;52.086;21.066;2023-03-14T02:44:30;10.70;;;5.30;;
23474;SDS011;11910;52.086;21.066;2023-03-14T02:46:56;7.53;;;5.50;;
23474;SDS011;11910;52.086;21.066;2023-03-14T02:49:22;9.77;;;4.88;;
23474;SDS011;11910;52.086;21.066;2023-03-14T02:51:48;8.65;;;5.07;;
23474;SDS011;11910;52.086;21.066;2023-03-14T02:54:14;8.10;;;5.18;;
23474;SDS011;11910;52.086;21.066;2023-03-14T02:56:40;9.80;;;5.13;;
23474;SDS011;11910;52.086;21.066;2023-03-14T02:59:06;8.85;;;5.35;;
23474;SDS011;11910;52.086;21.066;2023-03-14T03:01:32;10.30;;;5.00;;
23474;SDS011;11910;52.086;21.066;2023-03-14T03:03:59;11.25;;;5.40;;
23474;SDS011;11910;52.086;21.066;2023-03-14T03:06:24;9.55;;;5.28;;
23474;SDS011;11910;52.086;21.066;2023-03-14T03:08:50;8.75;;;5.35;;
23474;SDS011;11910;52.086;21.066;2023-03-14T03:11:16;8.25;;;5.40;;
23474;SDS011;11910;52.086;21.066;2023-03-14T03:13:42;11.15;;;5.75;;
23474;SDS011;11910;52.086;21.066;2023-03-14T03:16:07;9.48;;;5.50;;
23474;SDS011;11910;52.086;21.066;2023-03-14T03:18:33;10.00;;;5.50;;
23474;SDS011;11910;52.086;21.066;2023-03-14T03:20:59;8.70;;;5.30;;
23474;SDS011;11910;52.086;21.066;2023-03-14T03:23:26;9.02;;;5.35;;
23474;SDS011;11910;52.086;21.066;2023-03-14T03:25:51;9.80;;;5.53;;
23474;SDS011;11910;52.086;21.066;2023-03-14T03:28:17;9.38;;;5.20;;
23474;SDS011;11910;52.086;21.066;2023-03-14T03:30:44;8.00;;;5.10;;
23474;SDS011;11910;52.086;21.066;2023-03-14T03:33:10;8.65;;;5.32;;
23474;SDS011;11910;52.086;21.066;2023-03-14T03:35:43;9.20;;;5.20;;
23474;SDS011;11910;52.086;21.066;2023-03-14T03:38:13;8.32;;;5.47;;
23474;SDS011;11910;52.086;21.066;2023-03-14T03:40:40;9.75;;;5.93;;
23474;SDS011;11910;52.086;21.066;2023-03-14T03:43:05;8.85;;;5.40;;
23474;SDS011;11910;52.086;21.066;2023-03-14T03:45:31;9.45;;;5.10;;
23474;SDS011;11910;52.086;21.066;2023-03-14T03:47:56;9.13;;;5.28;;
23474;SDS011;11910;52.086;21.066;2023-03-14T03:50:22;9.80;;;4.95;;
23474;SDS011;11910;52.086;21.066;2023-03-14T03:52:48;8.73;;;5.30;;
23474;SDS011;11910;52.086;21.066;2023-03-14T03:55:13;11.13;;;6.20;;
23474;SDS011;11910;52.086;21.066;2023-03-14T03:57:39;9.00;;;4.65;;
23474;SDS011;11910;52.086;21.066;2023-03-14T04:00:05;8.35;;;5.22;;
23474;SDS011;11910;52.086;21.066;2023-03-14T04:02:33;9.43;;;4.90;;
23474;SDS011;11910;52.086;21.066;2023-03-14T04:04:59;7.53;;;4.93;;
23474;SDS011;11910;52.086;21.066;2023-03-14T04:07:25;7.63;;;5.22;;
23474;SDS011;11910;52.086;21.066;2023-03-14T04:09:50;8.50;;;5.10;;
23474;SDS011;11910;52.086;21.066;2023-03-14T04:12:16;9.38;;;5.32;;
23474;SDS011;11910;52.086;21.066;2023-03-14T04:14:41;9.13;;;4.70;;
23474;SDS011;11910;52.086;21.066;2023-03-14T04:17:07;8.82;;;5.40;;
23474;SDS011;11910;52.086;21.066;2023-03-14T04:19:33;9.50;;;5.82;;
23474;SDS011;11910;52.086;21.066;2023-03-14T04:21:58;9.10;;;6.05;;
23474;SDS011;11910;52.086;21.066;2023-03-14T04:24:24;8.60;;;5.60;;
23474;SDS011;11910;52.086;21.066;2023-03-14T04:26:49;10.27;;;4.88;;
23474;SDS011;11910;52.086;21.066;2023-03-14T04:29:15;7.95;;;4.80;;
23474;SDS011;11910;52.086;21.066;2023-03-14T04:31:41;7.55;;;4.80;;
23474;SDS011;11910;52.086;21.066;2023-03-14T04:34:06;10.20;;;5.03;;
23474;SDS011;11910;52.086;21.066;2023-03-14T04:36:32;8.20;;;5.20;;
23474;SDS011;11910;52.086;21.066;2023-03-14T04:38:57;10.02;;;4.85;;
23474;SDS011;11910;52.086;21.066;2023-03-14T04:41:23;9.00;;;4.50;;
23474;SDS011;11910;52.086;21.066;2023-03-14T04:43:49;10.80;;;5.40;;
23474;SDS011;11910;52.086;21.066;2023-03-14T04:46:14;7.15;;;4.50;;
23474;SDS011;11910;52.086;21.066;2023-03-14T04:48:40;7.35;;;4.90;;
23474;SDS011;11910;52.086;21.066;2023-03-14T04:51:06;7.25;;;4.53;;
23474;SDS011;11910;52.086;21.066;2023-03-14T04:53:31;7.88;;;4.78;;
23474;SDS011;11910;52.086;21.066;2023-03-14T04:55:57;7.72;;;4.70;;
23474;SDS011;11910;52.086;21.066;2023-03-14T04:58:23;8.30;;;4.72;;
23474;SDS011;11910;52.086;21.066;2023-03-14T05:00:49;7.15;;;4.85;;
23474;SDS011;11910;52.086;21.066;2023-03-14T05:03:15;8.27;;;4.85;;
23474;SDS011;11910;52.086;21.066;2023-03-14T05:05:41;9.00;;;4.60;;
23474;SDS011;11910;52.086;21.066;2023-03-14T05:08:07;9.63;;;4.40;;
23474;SDS011;11910;52.086;21.066;2023-03-14T05:10:33;8.93;;;4.80;;
23474;SDS011;11910;52.086;21.066;2023-03-14T05:12:59;8.63;;;4.80;;
23474;SDS011;11910;52.086;21.066;2023-03-14T05:15:24;9.63;;;4.88;;
23474;SDS011;11910;52.086;21.066;2023-03-14T05:17:50;9.00;;;5.07;;
23474;SDS011;11910;52.086;21.066;2023-03-14T05:20:15;7.88;;;4.72;;
23474;SDS011;11910;52.086;21.066;2023-03-14T05:22:41;10.10;;;5.43;;
23474;SDS011;11910;52.086;21.066;2023-03-14T05:25:07;8.20;;;5.00;;
23474;SDS011;11910;52.086;21.066;2023-03-14T05:27:33;10.27;;;4.40;;
23474;SDS011;11910;52.086;21.066;2023-03-14T05:29:59;9.50;;;4.85;;
23474;SDS011;11910;52.086;21.066;2023-03-14T05:32:25;8.93;;;4.78;;
23474;SDS011;11910;52.086;21.066;2023-03-14T05:34:51;7.13;;;4.63;;
23474;SDS011;11910;52.086;21.066;2023-03-14T05:37:17;10.27;;;5.13;;
23474;SDS011;11910;52.086;21.066;2023-03-14T05:39:42;6.95;;;4.45;;
23474;SDS011;11910;52.086;21.066;2023-03-14T05:42:08;7.03;;;4.85;;
23474;SDS011;11910;52.086;21.066;2023-03-14T05:44:33;8.20;;;4.15;;
23474;SDS011;11910;52.086;21.066;2023-03-14T05:46:59;8.38;;;4.82;;
23474;SDS011;11910;52.086;21.066;2023-03-14T05:49:24;6.03;;;4.80;;
23474;SDS011;11910;52.086;21.066;2023-03-14T05:51:50;6.65;;;4.50;;
23474;SDS011;11910;52.086;21.066;2023-03-14T05:54:16;7.28;;;4.38;;
23474;SDS011;11910;52.086;21.066;2023-03-14T05:56:42;6.88;;;4.30;;
23474;SDS011;11910;52.086;21.066;2023-03-14T05:59:08;6.90;;;4.50;;
23474;SDS011;11910;52.086;21.066;2023-03-14T06:01:34;6.45;;;4.68;;
23474;SDS011;11910;52.086;21.066;2023-03-14T06:04:00;7.30;;;4.30;;
23474;SDS011;11910;52.086;21.066;2023-03-14T06:06:26;7.63;;;4.20;;
23474;SDS011;11910;52.086;21.066;2023-03-14T06:08:51;6.65;;;4.72;;
23474;SDS011;11910;52.086;21.066;2023-03-14T06:11:17;7.30;;;4.18;;
23474;SDS011;11910;52.086;21.066;2023-03-14T06:13:42;5.93;;;4.40;;
23474;SDS011;11910;52.086;21.066;2023-03-14T06:16:08;6.68;;;4.30;;
23474;SDS011;11910;52.086;21.066;2023-03-14T06:18:34;7.40;;;4.50;;
23474;SDS011;11910;52.086;21.066;2023-03-14T06:20:59;8.05;;;4.50;;
23474;SDS011;11910;52.086;21.066;2023-03-14T06:23:25;7.38;;;4.30;;
23474;SDS011;11910;52.086;21.066;2023-03-14T06:25:52;7.75;;;4.25;;
23474;SDS011;11910;52.086;21.066;2023-03-14T06:28:17;6.78;;;4.85;;
23474;SDS011;11910;52.086;21.066;2023-03-14T06:30:43;7.03;;;4.45;;
23474;SDS011;11910;52.086;21.066;2023-03-14T06:33:14;9.65;;;4.75;;
23474;SDS011;11910;52.086;21.066;2023-03-14T06:35:40;7.18;;;4.72;;
23474;SDS011;11910;52.086;21.066;2023-03-14T06:38:26;8.35;;;4.35;;
23474;SDS011;11910;52.086;21.066;2023-03-14T06:40:54;8.48;;;4.55;;
23474;SDS011;11910;52.086;21.066;2023-03-14T06:43:22;6.22;;;4.45;;
23474;SDS011;11910;52.086;21.066;2023-03-14T06:45:48;6.13;;;4.32;;
23474;SDS011;11910;52.086;21.066;2023-03-14T06:48:14;5.50;;;4.00;;
23474;SDS011;11910;52.086;21.066;2023-03-14T06:50:39;7.50;;;4.25;;
23474;SDS011;11910;52.086;21.066;2023-03-14T06:53:05;7.93;;;4.35;;
23474;SDS011;11910;52.086;21.066;2023-03-14T06:55:30;8.02;;;4.60;;
23474;SDS011;11910;52.086;21.066;2023-03-14T06:57:56;7.10;;;4.20;;
23474;SDS011;11910;52.086;21.066;2023-03-14T07:00:22;8.88;;;4.20;;
23474;SDS011;11910;52.086;21.066;2023-03-14T07:02:48;7.63;;;4.30;;
23474;SDS011;11910;52.086;21.066;2023-03-14T07:05:13;7.00;;;3.75;;
23474;SDS011;11910;52.086;21.066;2023-03-14T07:07:39;6.30;;;3.58;;
23474;SDS011;11910;52.086;21.066;2023-03-14T07:10:05;8.98;;;4.07;;
23474;SDS011;11910;52.086;21.066;2023-03-14T07:12:32;7.35;;;4.20;;
23474;SDS011;11910;52.086;21.066;2023-03-14T07:14:57;7.00;;;4.05;;
23474;SDS011;11910;52.086;21.066;2023-03-14T07:17:23;6.20;;;3.67;;
23474;SDS011;11910;52.086;21.066;2023-03-14T07:19:49;6.30;;;4.03;;
23474;SDS011;11910;52.086;21.066;2023-03-14T07:22:14;5.82;;;3.90;;
23474;SDS011;11910;52.086;21.066;2023-03-14T07:24:40;5.90;;;4.13;;
23474;SDS011;11910;52.086;21.066;2023-03-14T07:27:06;7.53;;;4.43;;
23474;SDS011;11910;52.086;21.066;2023-03-14T07:29:31;7.03;;;3.72;;
23474;SDS011;11910;52.086;21.066;2023-03-14T07:31:57;5.72;;;3.92;;
23474;SDS011;11910;52.086;21.066;2023-03-14T07:34:22;7.28;;;4.03;;
23474;SDS011;11910;52.086;21.066;2023-03-14T07:36:48;6.45;;;3.65;;
23474;SDS011;11910;52.086;21.066;2023-03-14T07:39:14;6.70;;;3.95;;
23474;SDS011;11910;52.086;21.066;2023-03-14T07:41:40;7.20;;;3.28;;
23474;SDS011;11910;52.086;21.066;2023-03-14T07:44:05;6.57;;;4.00;;
23474;SDS011;11910;52.086;21.066;2023-03-14T07:46:31;7.10;;;3.70;;
23474;SDS011;11910;52.086;21.066;2023-03-14T07:48:57;5.25;;;3.70;;
23474;SDS011;11910;52.086;21.066;2023-03-14T07:51:25;5.88;;;3.50;;
23474;SDS011;11910;52.086;21.066;2023-03-14T07:54:00;7.55;;;3.80;;
23474;SDS011;11910;52.086;21.066;2023-03-14T07:56:35;7.50;;;3.88;;
23474;SDS011;11910;52.086;21.066;2023-03-14T07:59:03;6.00;;;3.60;;
23474;SDS011;11910;52.086;21.066;2023-03-14T08:01:48;5.35;;;3.55;;
23474;SDS011;11910;52.086;21.066;2023-03-14T08:04:22;6.32;;;3.65;;
23474;SDS011;11910;52.086;21.066;2023-03-14T08:06:57;6.82;;;3.50;;
23474;SDS011;11910;52.086;21.066;2023-03-14T08:09:23;6.30;;;3.90;;
23474;SDS011;11910;52.086;21.066;2023-03-14T08:12:05;6.13;;;4.18;;
23474;SDS011;11910;52.086;21.066;2023-03-14T08:14:37;7.50;;;4.00;;
23474;SDS011;11910;52.086;21.066;2023-03-14T08:23:32;5.93;;;4.10;;
23474;SDS011;11910;52.086;21.066;2023-03-14T08:26:09;10.68;;;4.18;;
23474;SDS011;11910;52.086;21.066;2023-03-14T08:28:44;6.78;;;4.10;;
23474;SDS011;11910;52.086;21.066;2023-03-14T08:31:17;7.70;;;4.35;;
23474;SDS011;11910;52.086;21.066;2023-03-14T08:33:46;5.38;;;4.03;;
23474;SDS011;11910;52.086;21.066;2023-03-14T08:36:12;5.82;;;4.00;;
23474;SDS011;11910;52.086;21.066;2023-03-14T08:41:32;4.97;;;3.80;;
23474;SDS011;11910;52.086;21.066;2023-03-14T08:44:09;6.82;;;3.92;;
23474;SDS011;11910;52.086;21.066;2023-03-14T08:46:43;6.85;;;4.43;;
23474;SDS011;11910;52.086;21.066;2023-03-14T08:49:13;10.50;;;4.10;;
23474;SDS011;11910;52.086;21.066;2023-03-14T08:51:57;7.28;;;4.20;;
23474;SDS011;11910;52.086;21.066;2023-03-14T08:54:23;7.47;;;3.90;;
23474;SDS011;11910;52.086;21.066;2023-03-14T08:56:49;7.80;;;4.18;;
23474;SDS011;11910;52.086;21.066;2023-03-14T08:59:15;6.55;;;4.00;;
23474;SDS011;11910;52.086;21.066;2023-03-14T09:01:40;5.85;;;3.80;;
23474;SDS011;11910;52.086;21.066;2023-03-14T09:04:09;9.50;;;4.30;;
23474;SDS011;11910;52.086;21.066;2023-03-14T09:06:35;8.05;;;4.30;;
23474;SDS011;11910;52.086;21.066;2023-03-14T09:09:00;6.45;;;3.65;;
23474;SDS011;11910;52.086;21.066;2023-03-14T09:11:26;7.50;;;3.63;;
23474;SDS011;11910;52.086;21.066;2023-03-14T09:13:52;6.85;;;4.03;;
23474;SDS011;11910;52.086;21.066;2023-03-14T09:16:18;6.55;;;3.95;;
23474;SDS011;11910;52.086;21.066;2023-03-14T09:18:43;6.43;;;3.58;;
23474;SDS011;11910;52.086;21.066;2023-03-14T09:21:09;5.65;;;3.50;;
23474;SDS011;11910;52.086;21.066;2023-03-14T09:23:34;10.15;;;4.20;;
23474;SDS011;11910;52.086;21.066;2023-03-14T09:26:00;5.00;;;3.63;;
23474;SDS011;11910;52.086;21.066;2023-03-14T09:28:26;7.30;;;3.85;;
23474;SDS011;11910;52.086;21.066;2023-03-14T09:30:52;7.20;;;3.60;;
23474;SDS011;11910;52.086;21.066;2023-03-14T09:33:19;7.15;;;4.25;;
23474;SDS011;11910;52.086;21.066;2023-03-14T09:35:45;5.95;;;3.90;;
23474;SDS011;11910;52.086;21.066;2023-03-14T09:38:11;5.47;;;3.70;;
23474;SDS011;11910;52.086;21.066;2023-03-14T09:40:37;6.13;;;3.75;;
23474;SDS011;11910;52.086;21.066;2023-03-14T09:43:04;6.97;;;3.92;;
23474;SDS011;11910;52.086;21.066;2023-03-14T09:45:34;8.02;;;4.00;;
23474;SDS011;11910;52.086;21.066;2023-03-14T09:48:02;6.45;;;3.83;;
23474;SDS011;11910;52.086;21.066;2023-03-14T09:50:31;7.90;;;3.88;;
23474;SDS011;11910;52.086;21.066;2023-03-14T09:53:03;5.20;;;3.55;;
23474;SDS011;11910;52.086;21.066;2023-03-14T09:55:39;6.57;;;4.05;;
23474;SDS011;11910;52.086;21.066;2023-03-14T09:58:11;9.80;;;4.03;;
23474;SDS011;11910;52.086;21.066;2023-03-14T10:05:36;8.18;;;4.10;;
23474;SDS011;11910;52.086;21.066;2023-03-14T10:08:01;5.57;;;3.20;;
23474;SDS011;11910;52.086;21.066;2023-03-14T10:10:27;5.80;;;3.78;;
23474;SDS011;11910;52.086;21.066;2023-03-14T10:13:00;7.70;;;3.38;;
23474;SDS011;11910;52.086;21.066;2023-03-14T10:15:52;6.20;;;3.65;;
23474;SDS011;11910;52.086;21.066;2023-03-14T10:18:20;5.70;;;3.58;;
23474;SDS011;11910;52.086;21.066;2023-03-14T10:20:49;7.50;;;3.60;;
23474;SDS011;11910;52.086;21.066;2023-03-14T10:23:27;6.30;;;3.40;;
23474;SDS011;11910;52.086;21.066;2023-03-14T10:25:58;6.20;;;3.40;;
23474;SDS011;11910;52.086;21.066;2023-03-14T10:28:31;7.90;;;3.50;;
23474;SDS011;11910;52.086;21.066;2023-03-14T10:31:07;6.38;;;3.17;;
23474;SDS011;11910;52.086;21.066;2023-03-14T10:33:34;7.82;;;3.80;;
23474;SDS011;11910;52.086;21.066;2023-03-14T10:36:02;6.97;;;3.20;;
23474;SDS011;11910;52.086;21.066;2023-03-14T10:38:44;6.20;;;3.50;;
23474;SDS011;11910;52.086;21.066;2023-03-14T10:41:22;5.60;;;3.60;;
23474;SDS011;11910;52.086;21.066;2023-03-14T10:43:51;5.55;;;3.30;;
23474;SDS011;11910;52.086;21.066;2023-03-14T10:46:21;6.85;;;3.88;;
23474;SDS011;11910;52.086;21.066;2023-03-14T10:48:50;6.93;;;3.50;;
23474;SDS011;11910;52.086;21.066;2023-03-14T10:51:28;6.97;;;3.42;;
23474;SDS011;11910;52.086;21.066;2023-03-14T10:54:01;6.13;;;3.42;;
23474;SDS011;11910;52.086;21.066;2023-03-14T10:56:37;7.03;;;4.00;;
23474;SDS011;11910;52.086;21.066;2023-03-14T10:59:03;7.15;;;3.45;;
23474;SDS011;11910;52.086;21.066;2023-03-14T11:01:51;8.82;;;3.95;;
23474;SDS011;11910;52.086;21.066;2023-03-14T11:07:39;12.85;;;7.28;;
23474;SDS011;11910;52.086;21.066;2023-03-14T11:18:44;6.40;;;3.90;;
23474;SDS011;11910;52.086;21.066;2023-03-14T11:21:29;7.85;;;3.85;;
23474;SDS011;11910;52.086;21.066;2023-03-14T11:32:10;5.97;;;4.05;;
23474;SDS011;11910;52.086;21.066;2023-03-14T11:34:57;8.75;;;3.95;;
23474;SDS011;11910;52.086;21.066;2023-03-14T11:40:45;7.80;;;3.88;;
23474;SDS011;11910;52.086;21.066;2023-03-14T11:43:30;7.22;;;3.65;;
23474;SDS011;11910;52.086;21.066;2023-03-14T11:46:13;6.65;;;3.65;;
23474;SDS011;11910;52.086;21.066;2023-03-14T12:13:17;8.00;;;4.25;;
23474;SDS011;11910;52.086;21.066;2023-03-14T12:15:50;9.23;;;4.43;;
23474;SDS011;11910;52.086;21.066;2023-03-14T12:21:05;6.30;;;3.97;;
23474;SDS011;11910;52.086;21.066;2023-03-14T12:23:43;7.95;;;4.50;;
23474;SDS011;11910;52.086;21.066;2023-03-14T12:26:24;7.25;;;4.50;;
23474;SDS011;11910;52.086;21.066;2023-03-14T12:44:39;8.63;;;4.85;;
23474;SDS011;11910;52.086;21.066;2023-03-14T12:49:56;10.43;;;5.68;;
23474;SDS011;11910;52.086;21.066;2023-03-14T12:58:16;9.32;;;5.28;;
23474;SDS011;11910;52.086;21.066;2023-03-14T13:00:55;9.40;;;5.68;;
23474;SDS011;11910;52.086;21.066;2023-03-14T13:03:25;11.63;;;5.22;;
23474;SDS011;11910;52.086;21.066;2023-03-14T13:06:04;10.75;;;5.53;;
23474;SDS011;11910;52.086;21.066;2023-03-14T13:08:34;10.25;;;5.75;;
23474;SDS011;11910;52.086;21.066;2023-03-14T13:11:04;9.85;;;5.15;;
23474;SDS011;11910;52.086;21.066;2023-03-14T13:13:57;9.90;;;5.72;;
23474;SDS011;11910;52.086;21.066;2023-03-14T13:16:24;8.30;;;5.28;;
23474;SDS011;11910;52.086;21.066;2023-03-14T13:18:51;11.75;;;5.75;;
23474;SDS011;11910;52.086;21.066;2023-03-14T13:21:34;9.98;;;5.82;;
23474;SDS011;11910;52.086;21.066;2023-03-14T13:24:05;9.93;;;5.15;;
23474;SDS011;11910;52.086;21.066;2023-03-14T13:26:53;7.82;;;5.47;;
23474;SDS011;11910;52.086;21.066;2023-03-14T13:29:21;9.32;;;5.65;;
23474;SDS011;11910;52.086;21.066;2023-03-14T13:31:50;11.65;;;5.65;;
23474;SDS011;11910;52.086;21.066;2023-03-14T13:34:17;10.13;;;5.45;;
23474;SDS011;11910;52.086;21.066;2023-03-14T13:36:51;10.55;;;7.93;;
23474;SDS011;11910;52.086;21.066;2023-03-14T13:39:21;8.60;;;5.45;;
23474;SDS011;11910;52.086;21.066;2023-03-14T13:41:50;62.28;;;39.50;;
23474;SDS011;11910;52.086;21.066;2023-03-14T13:44:21;155.30;;;80.38;;
23474;SDS011;11910;52.086;21.066;2023-03-14T13:46:59;38.13;;;24.52;;
23474;SDS011;11910;52.086;21.066;2023-03-14T13:49:32;17.48;;;10.23;;
23474;SDS011;11910;52.086;21.066;2023-03-14T13:55:00;9.68;;;5.63;;
23474;SDS011;11910;52.086;21.066;2023-03-14T13:57:28;10.68;;;5.40;;
23474;SDS011;11910;52.086;21.066;2023-03-14T14:00:16;8.30;;;5.55;;
23474;SDS011;11910;52.086;21.066;2023-03-14T14:02:48;9.10;;;4.70;;
23474;SDS011;11910;52.086;21.066;2023-03-14T14:05:16;8.93;;;5.03;;
23474;SDS011;11910;52.086;21.066;2023-03-14T14:07:57;8.25;;;5.40;;
23474;SDS011;11910;52.086;21.066;2023-03-14T14:10:25;8.20;;;5.57;;
23474;SDS011;11910;52.086;21.066;2023-03-14T14:13:02;9.38;;;5.32;;
23474;SDS011;11910;52.086;21.066;2023-03-14T14:15:29;9.95;;;5.72;;
23474;SDS011;11910;52.086;21.066;2023-03-14T14:18:07;9.20;;;5.93;;
23474;SDS011;11910;52.086;21.066;2023-03-14T14:20:38;9.77;;;6.20;;
23474;SDS011;11910;52.086;21.066;2023-03-14T14:23:10;13.77;;;8.27;;
23474;SDS011;11910;52.086;21.066;2023-03-14T14:25:50;13.18;;;6.40;;
23474;SDS011;11910;52.086;21.066;2023-03-14T14:28:27;11.45;;;5.75;;
23474;SDS011;11910;52.086;21.066;2023-03-14T14:31:15;9.15;;;5.80;;
23474;SDS011;11910;52.086;21.066;2023-03-14T14:36:27;10.40;;;6.00;;
23474;SDS011;11910;52.086;21.066;2023-03-14T14:39:03;9.07;;;5.65;;
23474;SDS011;11910;52.086;21.066;2023-03-14T14:41:44;11.15;;;6.15;;
23474;SDS011;11910;52.086;21.066;2023-03-14T14:44:14;10.93;;;7.63;;
23474;SDS011;11910;52.086;21.066;2023-03-14T14:46:43;12.10;;;7.03;;
23474;SDS011;11910;52.086;21.066;2023-03-14T14:49:10;10.02;;;6.25;;
23474;SDS011;11910;52.086;21.066;2023-03-14T14:51:51;7.53;;;5.75;;
23474;SDS011;11910;52.086;21.066;2023-03-14T14:54:36;9.32;;;6.80;;
23474;SDS011;11910;52.086;21.066;2023-03-14T14:57:12;10.68;;;7.50;;
23474;SDS011;11910;52.086;21.066;2023-03-14T14:59:47;12.93;;;9.38;;
23474;SDS011;11910;52.086;21.066;2023-03-14T15:02:24;18.15;;;12.85;;
23474;SDS011;11910;52.086;21.066;2023-03-14T15:04:55;12.25;;;7.97;;
23474;SDS011;11910;52.086;21.066;2023-03-14T15:07:21;12.95;;;6.72;;
23474;SDS011;11910;52.086;21.066;2023-03-14T15:09:47;11.50;;;7.18;;
23474;SDS011;11910;52.086;21.066;2023-03-14T15:12:12;11.10;;;6.75;;
23474;SDS011;11910;52.086;21.066;2023-03-14T15:14:38;10.98;;;7.38;;
23474;SDS011;11910;52.086;21.066;2023-03-14T15:17:05;9.55;;;6.63;;
23474;SDS011;11910;52.086;21.066;2023-03-14T15:19:34;8.48;;;5.47;;
23474;SDS011;11910;52.086;21.066;2023-03-14T15:21:59;9.95;;;6.68;;
23474;SDS011;11910;52.086;21.066;2023-03-14T15:24:25;10.45;;;5.85;;
23474;SDS011;11910;52.086;21.066;2023-03-14T15:26:53;9.40;;;6.20;;
23474;SDS011;11910;52.086;21.066;2023-03-14T15:29:19;9.52;;;5.70;;
23474;SDS011;11910;52.086;21.066;2023-03-14T15:31:45;10.20;;;6.38;;
23474;SDS011;11910;52.086;21.066;2023-03-14T15:34:10;9.77;;;7.22;;
23474;SDS011;11910;52.086;21.066;2023-03-14T15:36:36;16.27;;;9.68;;
23474;SDS011;11910;52.086;21.066;2023-03-14T15:39:04;21.08;;;12.82;;
23474;SDS011;11910;52.086;21.066;2023-03-14T15:41:31;21.45;;;12.40;;
23474;SDS011;11910;52.086;21.066;2023-03-14T15:43:59;17.70;;;11.90;;
23474;SDS011;11910;52.086;21.066;2023-03-14T15:46:25;18.52;;;12.20;;
23474;SDS011;11910;52.086;21.066;2023-03-14T15:48:51;16.30;;;10.82;;
23474;SDS011;11910;52.086;21.066;2023-03-14T15:51:17;19.80;;;9.55;;
23474;SDS011;11910;52.086;21.066;2023-03-14T15:53:43;16.08;;;10.18;;
23474;SDS011;11910;52.086;21.066;2023-03-14T15:56:13;16.83;;;11.10;;
23474;SDS011;11910;52.086;21.066;2023-03-14T15:58:44;14.98;;;10.95;;
23474;SDS011;11910;52.086;21.066;2023-03-14T16:01:14;16.10;;;11.50;;
23474;SDS011;11910;52.086;21.066;2023-03-14T16:03:43;17.80;;;12.10;;
23474;SDS011;11910;52.086;21.066;2023-03-14T16:06:14;16.20;;;10.70;;
23474;SDS011;11910;52.086;21.066;2023-03-14T16:08:40;17.27;;;10.18;;
23474;SDS011;11910;52.086;21.066;2023-03-14T16:11:08;13.70;;;9.00;;
23474;SDS011;11910;52.086;21.066;2023-03-14T16:13:36;14.38;;;9.57;;
23474;SDS011;11910;52.086;21.066;2023-03-14T16:16:03;12.77;;;9.52;;
23474;SDS011;11910;52.086;21.066;2023-03-14T16:18:31;14.00;;;8.63;;
23474;SDS011;11910;52.086;21.066;2023-03-14T16:20:59;13.45;;;9.15;;
23474;SDS011;11910;52.086;21.066;2023-03-14T16:23:27;14.57;;;8.77;;